sensor_id;sensor_type;location;lat;lon;timestamp;P1;durP1;ratioP1;P2;durP2;ratioP2
27367;SDS011;14839;48.106;11.618;2022-10-31T05:00:24;0.40;;;0.10;;
27367;SDS011;14839;48.106;11.618;2022-10-31T05:02:51;0.47;;;0.30;;
27367;SDS011;14839;48.106;11.618;2022-10-31T05:05:22;1.40;;;1.30;;
27367;SDS011;14839;48.106;11.618;2022-10-31T05:07:50;0.20;;;0.17;;
27367;SDS011;14839;48.106;11.618;2022-10-31T05:10:17;0.20;;;0.20;;
27367;SDS011;14839;48.106;11.618;2022-10-31T05:12:51;0.70;;;0.50;;
27367;SDS011;14839;48.106;11.618;2022-10-31T05:15:22;0.30;;;0.30;;
27367;SDS011;14839;48.106;11.618;2022-10-31T05:17:49;0.20;;;0.10;;
27367;SDS011;14839;48.106;11.618;2022-10-31T05:20:16;0.20;;;0.20;;
27367;SDS011;14839;48.106;11.618;2022-10-31T05:22:43;0.30;;;0.30;;
27367;SDS011;14839;48.106;11.618;2022-10-31T05:25:16;0.40;;;0.40;;
27367;SDS011;14839;48.106;11.618;2022-10-31T05:27:48;0.27;;;0.20;;
27367;SDS011;14839;48.106;11.618;2022-10-31T05:30:16;0.77;;;0.77;;
27367;SDS011;14839;48.106;11.618;2022-10-31T05:32:46;0.20;;;0.10;;
27367;SDS011;14839;48.106;11.618;2022-10-31T05:35:14;1.47;;;0.67;;
27367;SDS011;14839;48.106;11.618;2022-10-31T05:37:42;0.63;;;0.30;;
27367;SDS011;14839;48.106;11.618;2022-10-31T05:40:08;0.30;;;0.20;;
27367;SDS011;14839;48.106;11.618;2022-10-31T05:42:35;0.60;;;0.20;;
27367;SDS011;14839;48.106;11.618;2022-10-31T05:45:03;0.20;;;0.10;;
27367;SDS011;14839;48.106;11.618;2022-10-31T05:47:29;0.20;;;0.13;;
27367;SDS011;14839;48.106;11.618;2022-10-31T05:49:55;1.07;;;0.73;;
27367;SDS011;14839;48.106;11.618;2022-10-31T05:52:21;0.20;;;0.13;;
27367;SDS011;14839;48.106;11.618;2022-10-31T05:54:46;0.20;;;0.20;;
27367;SDS011;14839;48.106;11.618;2022-10-31T05:57:12;0.30;;;0.23;;
27367;SDS011;14839;48.106;11.618;2022-10-31T05:59:37;0.67;;;0.30;;
27367;SDS011;14839;48.106;11.618;2022-10-31T06:02:03;0.40;;;0.27;;
27367;SDS011;14839;48.106;11.618;2022-10-31T06:04:28;0.47;;;0.47;;
27367;SDS011;14839;48.106;11.618;2022-10-31T06:06:54;0.97;;;0.77;;
27367;SDS011;14839;48.106;11.618;2022-10-31T06:09:21;0.70;;;0.57;;
27367;SDS011;14839;48.106;11.618;2022-10-31T06:11:47;0.43;;;0.43;;
27367;SDS011;14839;48.106;11.618;2022-10-31T06:14:13;0.43;;;0.40;;
27367;SDS011;14839;48.106;11.618;2022-10-31T06:16:38;0.40;;;0.40;;
27367;SDS011;14839;48.106;11.618;2022-10-31T06:19:04;12.73;;;0.50;;
27367;SDS011;14839;48.106;11.618;2022-10-31T06:21:30;0.67;;;0.37;;
27367;SDS011;14839;48.106;11.618;2022-10-31T06:23:55;0.57;;;0.40;;
27367;SDS011;14839;48.106;11.618;2022-10-31T06:26:21;0.57;;;0.20;;
27367;SDS011;14839;48.106;11.618;2022-10-31T06:28:46;0.40;;;0.30;;
27367;SDS011;14839;48.106;11.618;2022-10-31T06:31:12;0.30;;;0.20;;
27367;SDS011;14839;48.106;11.618;2022-10-31T06:33:38;0.20;;;0.20;;
27367;SDS011;14839;48.106;11.618;2022-10-31T06:36:06;0.30;;;0.30;;
27367;SDS011;14839;48.106;11.618;2022-10-31T06:38:32;0.43;;;0.40;;
27367;SDS011;14839;48.106;11.618;2022-10-31T06:41:01;0.20;;;0.20;;
27367;SDS011;14839;48.106;11.618;2022-10-31T06:43:29;0.60;;;0.23;;
27367;SDS011;14839;48.106;11.618;2022-10-31T06:45:54;0.30;;;0.20;;
27367;SDS011;14839;48.106;11.618;2022-10-31T06:48:20;0.20;;;0.10;;
27367;SDS011;14839;48.106;11.618;2022-10-31T06:50:46;0.20;;;0.10;;
27367;SDS011;14839;48.106;11.618;2022-10-31T06:53:12;0.53;;;0.53;;
27367;SDS011;14839;48.106;11.618;2022-10-31T06:55:39;0.33;;;0.33;;
27367;SDS011;14839;48.106;11.618;2022-10-31T06:58:05;0.53;;;0.23;;
27367;SDS011;14839;48.106;11.618;2022-10-31T07:00:31;0.20;;;0.10;;
27367;SDS011;14839;48.106;11.618;2022-10-31T07:03:01;0.20;;;0.10;;
27367;SDS011;14839;48.106;11.618;2022-10-31T07:05:28;0.33;;;0.27;;
27367;SDS011;14839;48.106;11.618;2022-10-31T07:07:59;0.27;;;0.27;;
27367;SDS011;14839;48.106;11.618;2022-10-31T07:10:27;0.67;;;0.67;;
27367;SDS011;14839;48.106;11.618;2022-10-31T07:13:02;0.30;;;0.20;;
27367;SDS011;14839;48.106;11.618;2022-10-31T07:15:33;0.20;;;0.20;;
27367;SDS011;14839;48.106;11.618;2022-10-31T07:18:00;0.93;;;0.93;;
27367;SDS011;14839;48.106;11.618;2022-10-31T07:20:27;0.40;;;0.40;;
27367;SDS011;14839;48.106;11.618;2022-10-31T07:22:53;0.30;;;0.30;;
27367;SDS011;14839;48.106;11.618;2022-10-31T07:25:19;0.40;;;0.40;;
27367;SDS011;14839;48.106;11.618;2022-10-31T07:27:45;0.40;;;0.40;;
27367;SDS011;14839;48.106;11.618;2022-10-31T07:30:11;0.40;;;0.23;;
27367;SDS011;14839;48.106;11.618;2022-10-31T07:32:44;0.20;;;0.20;;
27367;SDS011;14839;48.106;11.618;2022-10-31T07:35:15;0.40;;;0.40;;
27367;SDS011;14839;48.106;11.618;2022-10-31T07:37:43;1.20;;;0.50;;
27367;SDS011;14839;48.106;11.618;2022-10-31T07:40:09;1.23;;;0.43;;
27367;SDS011;14839;48.106;11.618;2022-10-31T07:42:36;0.43;;;0.40;;
27367;SDS011;14839;48.106;11.618;2022-10-31T07:45:06;0.33;;;0.33;;
27367;SDS011;14839;48.106;11.618;2022-10-31T07:47:40;0.67;;;0.53;;
27367;SDS011;14839;48.106;11.618;2022-10-31T07:50:07;0.30;;;0.30;;
27367;SDS011;14839;48.106;11.618;2022-10-31T07:52:34;0.53;;;0.30;;
27367;SDS011;14839;48.106;11.618;2022-10-31T07:55:00;1.20;;;0.53;;
27367;SDS011;14839;48.106;11.618;2022-10-31T07:57:26;0.30;;;0.30;;
27367;SDS011;14839;48.106;11.618;2022-10-31T07:59:51;1.27;;;1.00;;
27367;SDS011;14839;48.106;11.618;2022-10-31T08:02:17;0.87;;;0.60;;
27367;SDS011;14839;48.106;11.618;2022-10-31T08:04:43;1.20;;;0.77;;
27367;SDS011;14839;48.106;11.618;2022-10-31T08:07:08;0.93;;;0.70;;
27367;SDS011;14839;48.106;11.618;2022-10-31T08:09:34;0.50;;;0.50;;
27367;SDS011;14839;48.106;11.618;2022-10-31T08:12:00;1.17;;;0.90;;
27367;SDS011;14839;48.106;11.618;2022-10-31T08:14:26;0.83;;;0.50;;
27367;SDS011;14839;48.106;11.618;2022-10-31T08:16:52;0.60;;;0.50;;
27367;SDS011;14839;48.106;11.618;2022-10-31T08:19:18;1.23;;;0.77;;
27367;SDS011;14839;48.106;11.618;2022-10-31T08:21:44;0.60;;;0.60;;
27367;SDS011;14839;48.106;11.618;2022-10-31T08:24:10;0.93;;;0.80;;
27367;SDS011;14839;48.106;11.618;2022-10-31T08:26:35;0.63;;;0.50;;
27367;SDS011;14839;48.106;11.618;2022-10-31T08:29:01;0.60;;;0.60;;
27367;SDS011;14839;48.106;11.618;2022-10-31T08:31:27;1.93;;;0.70;;
27367;SDS011;14839;48.106;11.618;2022-10-31T08:33:53;1.07;;;0.80;;
27367;SDS011;14839;48.106;11.618;2022-10-31T08:36:19;3.47;;;0.97;;
27367;SDS011;14839;48.106;11.618;2022-10-31T08:38:48;0.70;;;0.63;;
27367;SDS011;14839;48.106;11.618;2022-10-31T08:41:14;1.30;;;0.93;;
27367;SDS011;14839;48.106;11.618;2022-10-31T08:43:40;2.57;;;0.77;;
27367;SDS011;14839;48.106;11.618;2022-10-31T08:46:06;0.87;;;0.70;;
27367;SDS011;14839;48.106;11.618;2022-10-31T08:48:32;1.33;;;0.90;;
27367;SDS011;14839;48.106;11.618;2022-10-31T08:50:58;1.90;;;1.03;;
27367;SDS011;14839;48.106;11.618;2022-10-31T08:53:24;1.17;;;0.90;;
27367;SDS011;14839;48.106;11.618;2022-10-31T08:55:50;1.38;;;1.23;;
27367;SDS011;14839;48.106;11.618;2022-10-31T08:58:19;2.33;;;1.30;;
27367;SDS011;14839;48.106;11.618;2022-10-31T09:00:45;2.90;;;1.13;;
27367;SDS011;14839;48.106;11.618;2022-10-31T09:03:13;1.05;;;0.95;;
27367;SDS011;14839;48.106;11.618;2022-10-31T09:05:40;1.60;;;0.90;;
27367;SDS011;14839;48.106;11.618;2022-10-31T09:08:06;1.13;;;0.77;;
27367;SDS011;14839;48.106;11.618;2022-10-31T09:10:33;1.15;;;0.90;;
27367;SDS011;14839;48.106;11.618;2022-10-31T09:13:04;1.38;;;1.20;;
27367;SDS011;14839;48.106;11.618;2022-10-31T09:15:35;0.93;;;0.80;;
27367;SDS011;14839;48.106;11.618;2022-10-31T09:18:03;2.10;;;1.17;;
27367;SDS011;14839;48.106;11.618;2022-10-31T09:20:30;3.08;;;1.23;;
27367;SDS011;14839;48.106;11.618;2022-10-31T09:22:57;0.95;;;0.60;;
27367;SDS011;14839;48.106;11.618;2022-10-31T09:25:24;1.05;;;0.80;;
27367;SDS011;14839;48.106;11.618;2022-10-31T09:27:50;2.25;;;0.75;;
27367;SDS011;14839;48.106;11.618;2022-10-31T09:30:16;1.83;;;1.33;;
27367;SDS011;14839;48.106;11.618;2022-10-31T09:32:41;1.13;;;0.80;;
27367;SDS011;14839;48.106;11.618;2022-10-31T09:35:07;3.00;;;0.85;;
27367;SDS011;14839;48.106;11.618;2022-10-31T09:37:33;2.90;;;0.97;;
27367;SDS011;14839;48.106;11.618;2022-10-31T09:39:59;2.07;;;0.63;;
27367;SDS011;14839;48.106;11.618;2022-10-31T09:45:17;1.40;;;0.50;;
27367;SDS011;14839;48.106;11.618;2022-10-31T09:47:57;1.23;;;0.67;;
27367;SDS011;14839;48.106;11.618;2022-10-31T09:50:46;0.70;;;0.60;;
27367;SDS011;14839;48.106;11.618;2022-10-31T09:56:15;0.83;;;0.60;;
27367;SDS011;14839;48.106;11.618;2022-10-31T09:58:45;1.37;;;0.70;;
27367;SDS011;14839;48.106;11.618;2022-10-31T10:03:54;1.37;;;0.70;;
27367;SDS011;14839;48.106;11.618;2022-10-31T10:06:29;0.90;;;0.80;;
27367;SDS011;14839;48.106;11.618;2022-10-31T10:08:59;0.47;;;0.43;;
27367;SDS011;14839;48.106;11.618;2022-10-31T10:14:01;2.23;;;0.90;;
27367;SDS011;14839;48.106;11.618;2022-10-31T10:22:22;1.33;;;0.77;;
27367;SDS011;14839;48.106;11.618;2022-10-31T10:29:58;1.03;;;0.70;;
27367;SDS011;14839;48.106;11.618;2022-10-31T10:32:29;0.30;;;0.30;;
27367;SDS011;14839;48.106;11.618;2022-10-31T10:35:16;2.30;;;0.53;;
27367;SDS011;14839;48.106;11.618;2022-10-31T10:37:46;0.63;;;0.40;;
27367;SDS011;14839;48.106;11.618;2022-10-31T10:40:15;0.53;;;0.53;;
27367;SDS011;14839;48.106;11.618;2022-10-31T10:51:37;0.40;;;0.40;;
27367;SDS011;14839;48.106;11.618;2022-10-31T10:59:33;0.40;;;0.40;;
27367;SDS011;14839;48.106;11.618;2022-10-31T11:01:59;1.30;;;0.87;;
27367;SDS011;14839;48.106;11.618;2022-10-31T11:04:31;1.13;;;0.40;;
27367;SDS011;14839;48.106;11.618;2022-10-31T11:09:32;0.80;;;0.70;;
27367;SDS011;14839;48.106;11.618;2022-10-31T11:11:59;2.03;;;0.83;;
27367;SDS011;14839;48.106;11.618;2022-10-31T11:14:33;2.03;;;0.53;;
27367;SDS011;14839;48.106;11.618;2022-10-31T11:17:10;0.40;;;0.30;;
27367;SDS011;14839;48.106;11.618;2022-10-31T11:19:59;1.87;;;0.60;;
27367;SDS011;14839;48.106;11.618;2022-10-31T11:22:26;0.80;;;0.70;;
27367;SDS011;14839;48.106;11.618;2022-10-31T11:24:51;0.70;;;0.60;;
27367;SDS011;14839;48.106;11.618;2022-10-31T11:27:21;1.00;;;0.70;;
27367;SDS011;14839;48.106;11.618;2022-10-31T11:29:49;0.60;;;0.50;;
27367;SDS011;14839;48.106;11.618;2022-10-31T11:32:23;0.67;;;0.50;;
27367;SDS011;14839;48.106;11.618;2022-10-31T11:34:52;0.70;;;0.50;;
27367;SDS011;14839;48.106;11.618;2022-10-31T11:37:24;0.60;;;0.50;;
27367;SDS011;14839;48.106;11.618;2022-10-31T11:39:56;2.70;;;0.70;;
27367;SDS011;14839;48.106;11.618;2022-10-31T11:42:35;0.83;;;0.80;;
27367;SDS011;14839;48.106;11.618;2022-10-31T11:45:13;0.63;;;0.50;;
27367;SDS011;14839;48.106;11.618;2022-10-31T11:47:42;0.57;;;0.47;;
27367;SDS011;14839;48.106;11.618;2022-10-31T11:50:11;1.30;;;0.93;;
27367;SDS011;14839;48.106;11.618;2022-10-31T11:52:45;1.30;;;0.63;;
27367;SDS011;14839;48.106;11.618;2022-10-31T11:57:58;0.50;;;0.50;;
27367;SDS011;14839;48.106;11.618;2022-10-31T12:03:03;0.70;;;0.53;;
27367;SDS011;14839;48.106;11.618;2022-10-31T12:06:34;0.70;;;0.60;;
27367;SDS011;14839;48.106;11.618;2022-10-31T12:08:43;0.50;;;0.50;;
27367;SDS011;14839;48.106;11.618;2022-10-31T12:14:00;1.03;;;0.70;;
27367;SDS011;14839;48.106;11.618;2022-10-31T12:19:22;0.73;;;0.60;;
27367;SDS011;14839;48.106;11.618;2022-10-31T12:22:05;1.17;;;0.90;;
27367;SDS011;14839;48.106;11.618;2022-10-31T12:36:46;0.67;;;0.63;;
27367;SDS011;14839;48.106;11.618;2022-10-31T12:42:38;1.00;;;0.60;;
27367;SDS011;14839;48.106;11.618;2022-10-31T12:56:07;4.70;;;0.87;;
27367;SDS011;14839;48.106;11.618;2022-10-31T12:59:06;0.83;;;0.70;;
27367;SDS011;14839;48.106;11.618;2022-10-31T13:04:44;0.60;;;0.50;;
27367;SDS011;14839;48.106;11.618;2022-10-31T13:07:25;1.10;;;0.80;;
27367;SDS011;14839;48.106;11.618;2022-10-31T13:12:37;0.93;;;0.50;;
27367;SDS011;14839;48.106;11.618;2022-10-31T13:15:12;1.10;;;0.63;;
27367;SDS011;14839;48.106;11.618;2022-10-31T13:18:06;1.60;;;0.73;;
27367;SDS011;14839;48.106;11.618;2022-10-31T13:20:37;0.43;;;0.40;;
27367;SDS011;14839;48.106;11.618;2022-10-31T13:23:19;2.20;;;0.53;;
27367;SDS011;14839;48.106;11.618;2022-10-31T13:25:46;0.53;;;0.53;;
27367;SDS011;14839;48.106;11.618;2022-10-31T13:30:56;1.60;;;1.10;;
27367;SDS011;14839;48.106;11.618;2022-10-31T13:33:26;2.73;;;0.83;;
27367;SDS011;14839;48.106;11.618;2022-10-31T13:44:45;0.90;;;0.80;;
27367;SDS011;14839;48.106;11.618;2022-10-31T13:47:23;1.83;;;1.00;;
27367;SDS011;14839;48.106;11.618;2022-10-31T13:50:04;1.20;;;0.67;;
27367;SDS011;14839;48.106;11.618;2022-10-31T13:52:50;1.20;;;0.67;;
27367;SDS011;14839;48.106;11.618;2022-10-31T13:55:34;0.60;;;0.50;;
27367;SDS011;14839;48.106;11.618;2022-10-31T13:58:24;0.50;;;0.40;;
27367;SDS011;14839;48.106;11.618;2022-10-31T14:03:39;2.37;;;0.80;;
27367;SDS011;14839;48.106;11.618;2022-10-31T14:06:06;1.17;;;0.83;;
27367;SDS011;14839;48.106;11.618;2022-10-31T14:08:34;0.60;;;0.60;;
27367;SDS011;14839;48.106;11.618;2022-10-31T14:11:02;0.67;;;0.50;;
27367;SDS011;14839;48.106;11.618;2022-10-31T14:13:32;1.57;;;0.53;;
27367;SDS011;14839;48.106;11.618;2022-10-31T14:16:07;0.80;;;0.80;;
27367;SDS011;14839;48.106;11.618;2022-10-31T14:18:41;2.30;;;1.00;;
27367;SDS011;14839;48.106;11.618;2022-10-31T14:23:48;0.67;;;0.60;;
27367;SDS011;14839;48.106;11.618;2022-10-31T14:28:42;0.77;;;0.50;;
27367;SDS011;14839;48.106;11.618;2022-10-31T14:31:30;0.77;;;0.60;;
27367;SDS011;14839;48.106;11.618;2022-10-31T14:36:55;0.87;;;0.83;;
27367;SDS011;14839;48.106;11.618;2022-10-31T14:45:15;1.53;;;0.80;;
27367;SDS011;14839;48.106;11.618;2022-10-31T14:51:19;0.53;;;0.53;;
27367;SDS011;14839;48.106;11.618;2022-10-31T14:56:09;2.00;;;0.70;;
27367;SDS011;14839;48.106;11.618;2022-10-31T14:58:40;3.47;;;0.90;;
27367;SDS011;14839;48.106;11.618;2022-10-31T15:01:18;0.73;;;0.67;;
27367;SDS011;14839;48.106;11.618;2022-10-31T15:03:57;1.07;;;0.80;;
27367;SDS011;14839;48.106;11.618;2022-10-31T15:06:39;1.20;;;0.80;;
27367;SDS011;14839;48.106;11.618;2022-10-31T15:09:24;2.30;;;0.87;;
27367;SDS011;14839;48.106;11.618;2022-10-31T15:12:00;0.43;;;0.43;;
27367;SDS011;14839;48.106;11.618;2022-10-31T15:14:39;1.43;;;0.60;;
27367;SDS011;14839;48.106;11.618;2022-10-31T15:17:05;1.03;;;0.83;;
27367;SDS011;14839;48.106;11.618;2022-10-31T15:19:32;2.13;;;0.97;;
27367;SDS011;14839;48.106;11.618;2022-10-31T15:21:59;0.63;;;0.63;;
27367;SDS011;14839;48.106;11.618;2022-10-31T15:24:32;1.03;;;0.80;;
27367;SDS011;14839;48.106;11.618;2022-10-31T15:27:00;0.73;;;0.63;;
27367;SDS011;14839;48.106;11.618;2022-10-31T15:29:26;1.00;;;0.90;;
27367;SDS011;14839;48.106;11.618;2022-10-31T15:31:57;0.57;;;0.57;;
27367;SDS011;14839;48.106;11.618;2022-10-31T15:37:03;1.97;;;1.37;;
27367;SDS011;14839;48.106;11.618;2022-10-31T15:39:30;1.73;;;0.93;;
27367;SDS011;14839;48.106;11.618;2022-10-31T15:41:58;0.70;;;0.47;;
27367;SDS011;14839;48.106;11.618;2022-10-31T15:44:28;1.57;;;1.43;;
27367;SDS011;14839;48.106;11.618;2022-10-31T15:47:05;2.33;;;1.00;;
27367;SDS011;14839;48.106;11.618;2022-10-31T15:49:39;2.23;;;1.30;;
27367;SDS011;14839;48.106;11.618;2022-10-31T15:52:18;1.47;;;1.00;;
27367;SDS011;14839;48.106;11.618;2022-10-31T15:54:51;0.60;;;0.50;;
27367;SDS011;14839;48.106;11.618;2022-10-31T15:57:20;1.37;;;1.10;;
27367;SDS011;14839;48.106;11.618;2022-10-31T15:59:48;1.17;;;1.00;;
27367;SDS011;14839;48.106;11.618;2022-10-31T16:02:17;1.27;;;0.80;;
27367;SDS011;14839;48.106;11.618;2022-10-31T16:04:49;1.70;;;0.63;;
27367;SDS011;14839;48.106;11.618;2022-10-31T16:07:18;0.70;;;0.63;;
27367;SDS011;14839;48.106;11.618;2022-10-31T16:12:36;3.70;;;1.00;;
27367;SDS011;14839;48.106;11.618;2022-10-31T16:15:12;3.77;;;0.93;;
27367;SDS011;14839;48.106;11.618;2022-10-31T16:17:40;1.53;;;0.90;;
27367;SDS011;14839;48.106;11.618;2022-10-31T16:20:16;1.43;;;1.30;;
27367;SDS011;14839;48.106;11.618;2022-10-31T16:22:47;1.33;;;1.23;;
27367;SDS011;14839;48.106;11.618;2022-10-31T16:25:36;1.53;;;1.43;;
27367;SDS011;14839;48.106;11.618;2022-10-31T16:28:03;1.23;;;0.83;;
27367;SDS011;14839;48.106;11.618;2022-10-31T16:30:38;0.77;;;0.77;;
27367;SDS011;14839;48.106;11.618;2022-10-31T16:33:23;2.07;;;1.07;;
27367;SDS011;14839;48.106;11.618;2022-10-31T16:35:54;2.10;;;1.50;;
27367;SDS011;14839;48.106;11.618;2022-10-31T16:38:21;1.13;;;1.00;;
27367;SDS011;14839;48.106;11.618;2022-10-31T16:40:47;1.57;;;1.17;;
27367;SDS011;14839;48.106;11.618;2022-10-31T16:43:14;1.57;;;1.13;;
27367;SDS011;14839;48.106;11.618;2022-10-31T16:45:48;1.60;;;1.07;;
27367;SDS011;14839;48.106;11.618;2022-10-31T16:48:16;2.00;;;1.40;;
27367;SDS011;14839;48.106;11.618;2022-10-31T16:50:44;2.03;;;1.40;;
27367;SDS011;14839;48.106;11.618;2022-10-31T16:53:11;1.57;;;1.30;;
27367;SDS011;14839;48.106;11.618;2022-10-31T16:58:13;1.83;;;1.13;;
27367;SDS011;14839;48.106;11.618;2022-10-31T17:00:42;1.33;;;1.23;;
27367;SDS011;14839;48.106;11.618;2022-10-31T17:03:08;2.87;;;1.53;;
27367;SDS011;14839;48.106;11.618;2022-10-31T17:05:34;2.70;;;1.23;;
27367;SDS011;14839;48.106;11.618;2022-10-31T17:08:00;4.47;;;2.53;;
27367;SDS011;14839;48.106;11.618;2022-10-31T17:10:26;2.60;;;2.30;;
27367;SDS011;14839;48.106;11.618;2022-10-31T17:12:52;2.40;;;2.13;;
27367;SDS011;14839;48.106;11.618;2022-10-31T17:15:26;1.50;;;1.33;;
27367;SDS011;14839;48.106;11.618;2022-10-31T17:17:53;2.07;;;1.33;;
27367;SDS011;14839;48.106;11.618;2022-10-31T17:20:24;1.30;;;1.17;;
27367;SDS011;14839;48.106;11.618;2022-10-31T17:22:51;2.33;;;1.70;;
27367;SDS011;14839;48.106;11.618;2022-10-31T17:25:21;1.63;;;1.27;;
27367;SDS011;14839;48.106;11.618;2022-10-31T17:27:48;1.87;;;1.43;;
27367;SDS011;14839;48.106;11.618;2022-10-31T17:30:15;3.80;;;1.70;;
27367;SDS011;14839;48.106;11.618;2022-10-31T17:32:42;1.63;;;1.30;;
27367;SDS011;14839;48.106;11.618;2022-10-31T17:35:09;2.10;;;1.90;;
27367;SDS011;14839;48.106;11.618;2022-10-31T17:37:37;0.77;;;0.77;;
27367;SDS011;14839;48.106;11.618;2022-10-31T17:40:03;1.40;;;1.30;;
27367;SDS011;14839;48.106;11.618;2022-10-31T17:42:29;1.80;;;1.53;;
27367;SDS011;14839;48.106;11.618;2022-10-31T17:44:56;2.03;;;1.93;;
27367;SDS011;14839;48.106;11.618;2022-10-31T17:47:21;3.30;;;1.67;;
27367;SDS011;14839;48.106;11.618;2022-10-31T17:49:47;1.87;;;1.60;;
27367;SDS011;14839;48.106;11.618;2022-10-31T17:52:13;2.17;;;1.93;;
27367;SDS011;14839;48.106;11.618;2022-10-31T17:54:39;4.77;;;1.97;;
27367;SDS011;14839;48.106;11.618;2022-10-31T17:57:04;3.97;;;2.43;;
27367;SDS011;14839;48.106;11.618;2022-10-31T17:59:30;2.43;;;1.60;;
27367;SDS011;14839;48.106;11.618;2022-10-31T18:01:56;2.37;;;1.80;;
27367;SDS011;14839;48.106;11.618;2022-10-31T18:04:23;3.63;;;2.63;;
27367;SDS011;14839;48.106;11.618;2022-10-31T18:06:49;2.73;;;2.10;;
27367;SDS011;14839;48.106;11.618;2022-10-31T18:09:15;4.60;;;1.77;;
27367;SDS011;14839;48.106;11.618;2022-10-31T18:11:41;2.47;;;2.27;;
27367;SDS011;14839;48.106;11.618;2022-10-31T18:14:07;2.13;;;1.93;;
27367;SDS011;14839;48.106;11.618;2022-10-31T18:16:33;3.20;;;2.13;;
27367;SDS011;14839;48.106;11.618;2022-10-31T18:18:59;3.97;;;2.13;;
27367;SDS011;14839;48.106;11.618;2022-10-31T18:21:26;3.37;;;2.43;;
27367;SDS011;14839;48.106;11.618;2022-10-31T18:23:55;2.53;;;2.03;;
27367;SDS011;14839;48.106;11.618;2022-10-31T18:26:22;4.33;;;1.97;;
27367;SDS011;14839;48.106;11.618;2022-10-31T18:28:48;1.70;;;1.27;;
27367;SDS011;14839;48.106;11.618;2022-10-31T18:31:14;3.57;;;2.33;;
27367;SDS011;14839;48.106;11.618;2022-10-31T18:33:39;2.17;;;1.67;;
27367;SDS011;14839;48.106;11.618;2022-10-31T18:36:07;4.20;;;2.33;;
27367;SDS011;14839;48.106;11.618;2022-10-31T18:38:38;3.43;;;2.30;;
27367;SDS011;14839;48.106;11.618;2022-10-31T18:41:05;2.10;;;1.93;;
27367;SDS011;14839;48.106;11.618;2022-10-31T18:43:31;2.73;;;1.70;;
27367;SDS011;14839;48.106;11.618;2022-10-31T18:46:01;2.77;;;2.30;;
27367;SDS011;14839;48.106;11.618;2022-10-31T18:48:28;2.70;;;1.90;;
27367;SDS011;14839;48.106;11.618;2022-10-31T18:50:55;1.80;;;1.63;;
27367;SDS011;14839;48.106;11.618;2022-10-31T18:53:32;3.20;;;1.47;;
27367;SDS011;14839;48.106;11.618;2022-10-31T18:55:58;1.77;;;1.37;;
27367;SDS011;14839;48.106;11.618;2022-10-31T18:58:25;1.80;;;1.60;;
27367;SDS011;14839;48.106;11.618;2022-10-31T19:00:51;2.50;;;2.07;;
27367;SDS011;14839;48.106;11.618;2022-10-31T19:03:18;1.57;;;1.47;;
27367;SDS011;14839;48.106;11.618;2022-10-31T19:05:43;7.57;;;2.13;;
27367;SDS011;14839;48.106;11.618;2022-10-31T19:08:09;3.07;;;1.97;;
27367;SDS011;14839;48.106;11.618;2022-10-31T19:10:38;1.63;;;1.53;;
27367;SDS011;14839;48.106;11.618;2022-10-31T19:13:05;2.07;;;1.23;;
27367;SDS011;14839;48.106;11.618;2022-10-31T19:15:32;3.07;;;1.37;;
27367;SDS011;14839;48.106;11.618;2022-10-31T19:17:58;2.27;;;1.70;;
27367;SDS011;14839;48.106;11.618;2022-10-31T19:20:25;2.80;;;1.90;;
27367;SDS011;14839;48.106;11.618;2022-10-31T19:22:51;3.83;;;1.60;;
27367;SDS011;14839;48.106;11.618;2022-10-31T19:25:17;2.90;;;1.57;;
27367;SDS011;14839;48.106;11.618;2022-10-31T19:27:42;1.43;;;0.90;;
27367;SDS011;14839;48.106;11.618;2022-10-31T19:30:08;2.27;;;1.70;;
27367;SDS011;14839;48.106;11.618;2022-10-31T19:32:34;1.33;;;0.93;;
27367;SDS011;14839;48.106;11.618;2022-10-31T19:35:00;1.87;;;1.20;;
27367;SDS011;14839;48.106;11.618;2022-10-31T19:37:26;0.70;;;0.63;;
27367;SDS011;14839;48.106;11.618;2022-10-31T19:39:52;1.10;;;1.00;;
27367;SDS011;14839;48.106;11.618;2022-10-31T19:42:18;1.63;;;1.30;;
27367;SDS011;14839;48.106;11.618;2022-10-31T19:44:44;2.80;;;1.30;;
27367;SDS011;14839;48.106;11.618;2022-10-31T19:47:09;2.57;;;1.37;;
27367;SDS011;14839;48.106;11.618;2022-10-31T19:49:35;0.97;;;0.97;;
27367;SDS011;14839;48.106;11.618;2022-10-31T19:52:00;4.07;;;1.30;;
27367;SDS011;14839;48.106;11.618;2022-10-31T19:54:26;1.13;;;1.07;;
27367;SDS011;14839;48.106;11.618;2022-10-31T19:56:51;4.63;;;1.80;;
27367;SDS011;14839;48.106;11.618;2022-10-31T19:59:17;1.50;;;1.07;;
27367;SDS011;14839;48.106;11.618;2022-10-31T20:01:43;1.43;;;1.30;;
27367;SDS011;14839;48.106;11.618;2022-10-31T20:04:08;1.23;;;0.80;;
27367;SDS011;14839;48.106;11.618;2022-10-31T20:06:35;2.20;;;1.17;;
27367;SDS011;14839;48.106;11.618;2022-10-31T20:09:03;2.47;;;2.13;;
27367;SDS011;14839;48.106;11.618;2022-10-31T20:11:31;1.90;;;1.13;;
27367;SDS011;14839;48.106;11.618;2022-10-31T20:13:58;1.93;;;1.83;;
27367;SDS011;14839;48.106;11.618;2022-10-31T20:16:24;3.17;;;1.67;;
27367;SDS011;14839;48.106;11.618;2022-10-31T20:18:51;1.60;;;1.50;;
27367;SDS011;14839;48.106;11.618;2022-10-31T20:21:18;1.30;;;0.93;;
27367;SDS011;14839;48.106;11.618;2022-10-31T20:23:46;4.43;;;1.70;;
27367;SDS011;14839;48.106;11.618;2022-10-31T20:26:13;1.93;;;1.20;;
27367;SDS011;14839;48.106;11.618;2022-10-31T20:28:42;2.20;;;1.87;;
27367;SDS011;14839;48.106;11.618;2022-10-31T20:31:11;5.07;;;1.63;;
27367;SDS011;14839;48.106;11.618;2022-10-31T20:33:38;1.70;;;1.03;;
27367;SDS011;14839;48.106;11.618;2022-10-31T20:36:04;1.73;;;1.63;;
27367;SDS011;14839;48.106;11.618;2022-10-31T20:38:31;2.07;;;1.47;;
27367;SDS011;14839;48.106;11.618;2022-10-31T20:41:01;0.57;;;0.57;;
27367;SDS011;14839;48.106;11.618;2022-10-31T20:43:28;1.10;;;1.03;;
27367;SDS011;14839;48.106;11.618;2022-10-31T20:46:04;1.63;;;1.23;;
27367;SDS011;14839;48.106;11.618;2022-10-31T20:48:32;1.87;;;1.17;;
27367;SDS011;14839;48.106;11.618;2022-10-31T20:50:58;3.23;;;0.93;;
27367;SDS011;14839;48.106;11.618;2022-10-31T20:53:26;2.33;;;1.57;;
27367;SDS011;14839;48.106;11.618;2022-10-31T20:56:02;1.33;;;0.97;;
27367;SDS011;14839;48.106;11.618;2022-10-31T20:58:32;2.30;;;1.27;;
27367;SDS011;14839;48.106;11.618;2022-10-31T21:00:59;2.77;;;2.17;;
27367;SDS011;14839;48.106;11.618;2022-10-31T21:03:25;1.83;;;1.03;;
27367;SDS011;14839;48.106;11.618;2022-10-31T21:05:55;2.23;;;1.23;;
27367;SDS011;14839;48.106;11.618;2022-10-31T21:08:25;1.13;;;1.03;;
27367;SDS011;14839;48.106;11.618;2022-10-31T21:10:52;1.27;;;1.10;;
27367;SDS011;14839;48.106;11.618;2022-10-31T21:13:18;0.83;;;0.63;;
27367;SDS011;14839;48.106;11.618;2022-10-31T21:15:44;1.27;;;1.17;;
27367;SDS011;14839;48.106;11.618;2022-10-31T21:18:10;1.67;;;0.80;;
27367;SDS011;14839;48.106;11.618;2022-10-31T21:20:40;0.80;;;0.80;;
27367;SDS011;14839;48.106;11.618;2022-10-31T21:23:08;1.43;;;0.97;;
27367;SDS011;14839;48.106;11.618;2022-10-31T21:25:41;0.70;;;0.70;;
27367;SDS011;14839;48.106;11.618;2022-10-31T21:28:07;1.27;;;0.53;;
27367;SDS011;14839;48.106;11.618;2022-10-31T21:30:38;0.83;;;0.73;;
27367;SDS011;14839;48.106;11.618;2022-10-31T21:33:05;1.53;;;0.80;;
27367;SDS011;14839;48.106;11.618;2022-10-31T21:35:31;0.87;;;0.63;;
27367;SDS011;14839;48.106;11.618;2022-10-31T21:37:56;1.30;;;1.03;;
27367;SDS011;14839;48.106;11.618;2022-10-31T21:40:23;0.97;;;0.83;;
27367;SDS011;14839;48.106;11.618;2022-10-31T21:42:49;1.17;;;1.07;;
27367;SDS011;14839;48.106;11.618;2022-10-31T21:45:14;1.13;;;0.60;;
27367;SDS011;14839;48.106;11.618;2022-10-31T21:47:40;1.03;;;0.93;;